Time;durP1;ratioP1;P1;durP2;ratioP2;P2;SDS_P1;SDS_P2;PMS_P1;PMS_P2;Temp;Humidity;BMP_temperature;BMP_pressure;BME280_temperature;BME280_humidity;BME280_pressure;Samples;Min_cycle;Max_cycle;Signal;HPM_P1;HPM_P2
2023/08/26 00:00:02;;;;;;;;;;;18.00;99.90;;;;;;5087392;28;19920;-39
2023/08/26 00:02:28;;;;;;;;;;;18.00;99.90;;;;;;5089041;28;20313;-39
2023/08/26 00:04:55;;;;;;;;;;;17.90;99.90;;;;;;5099832;28;20394;-39
2023/08/26 00:07:22;;;;;;;;;;;17.90;99.90;;;;;;5082393;28;19932;-39
2023/08/26 00:09:48;;;;;;;;;;;17.90;99.90;;;;;;5074272;28;19930;-39
2023/08/26 00:12:15;;;;;;;;;;;17.80;99.90;;;;;;5093836;28;19927;-39
2023/08/26 00:14:42;;;;;;;;;;;17.80;99.90;;;;;;5059286;28;19961;-39
2023/08/26 00:17:10;;;;;;;;;;;17.80;99.90;;;;;;5094011;28;20294;-39
2023/08/26 00:19:36;;;;;;;;;;;17.80;99.90;;;;;;5079977;28;19954;-39
2023/08/26 00:22:05;;;;;;;;;;;17.70;99.90;;;;;;5087152;28;20009;-39
2023/08/26 00:24:31;;;;;;;;;;;17.70;99.90;;;;;;5074578;28;19946;-39
2023/08/26 00:26:58;;;;;;;;;;;17.70;99.90;;;;;;5062256;28;19924;-39
2023/08/26 00:29:25;;;;;;;;;;;17.60;99.90;;;;;;5078961;28;20371;-39
2023/08/26 00:31:51;;;;;;;;;;;17.60;99.90;;;;;;5057461;28;19927;-39
2023/08/26 00:34:20;;;;;;;;;;;17.60;99.90;;;;;;5058627;28;20425;-39
2023/08/26 00:36:46;;;;;;;;;;;17.50;99.90;;;;;;5059238;28;20546;-39
2023/08/26 00:39:13;;;;;;;;;;;17.50;99.90;;;;;;5079395;28;19920;-39
2023/08/26 00:41:40;;;;;;;;;;;17.50;99.90;;;;;;5089908;28;20326;-40
2023/08/26 00:44:06;;;;;;;;;;;17.50;99.90;;;;;;5075003;28;20108;-39
2023/08/26 00:46:33;;;;;;;;;;;17.40;99.90;;;;;;5092104;28;19920;-39
2023/08/26 00:49:00;;;;;;;;;;;17.40;99.90;;;;;;5107186;28;19928;-39
2023/08/26 00:51:28;;;;;;;;;;;17.40;99.90;;;;;;5074309;28;20053;-39
2023/08/26 00:53:54;;;;;;;;;;;17.40;99.90;;;;;;5059130;28;19920;-39
2023/08/26 00:56:21;;;;;;;;;;;17.30;99.90;;;;;;5058764;28;19920;-39
2023/08/26 00:58:48;;;;;;;;;;;17.30;99.90;;;;;;5075549;28;20021;-39
2023/08/26 01:01:14;;;;;;;;;;;17.30;99.90;;;;;;5088811;28;19927;-39
2023/08/26 01:03:41;;;;;;;;;;;17.30;99.90;;;;;;5081571;28;19921;-39
2023/08/26 01:06:08;;;;;;;;;;;17.30;99.90;;;;;;5077460;28;19924;-39
2023/08/26 01:08:36;;;;;;;;;;;17.30;99.90;;;;;;5058365;28;19974;-39
2023/08/26 01:11:04;;;;;;;;;;;17.30;99.90;;;;;;5076205;28;19951;-39
2023/08/26 01:13:33;;;;;;;;;;;17.30;99.90;;;;;;5064662;28;19924;-39
2023/08/26 01:16:00;;;;;;;;;;;17.20;99.90;;;;;;5075417;28;19927;-39
2023/08/26 01:18:27;;;;;;;;;;;17.20;99.90;;;;;;5095066;28;20311;-40
2023/08/26 01:20:53;;;;;;;;;;;17.20;99.90;;;;;;5094511;28;19920;-39
2023/08/26 01:23:21;;;;;;;;;;;17.20;99.90;;;;;;5084077;28;19961;-39
2023/08/26 01:25:49;;;;;;;;;;;17.20;99.90;;;;;;5056955;28;19920;-39
2023/08/26 01:28:16;;;;;;;;;;;17.20;99.90;;;;;;5075265;28;20364;-39
2023/08/26 01:30:43;;;;;;;;;;;17.10;99.90;;;;;;5093390;28;20421;-39
2023/08/26 01:33:11;;;;;;;;;;;17.10;99.90;;;;;;5093165;28;19927;-39
2023/08/26 01:35:38;;;;;;;;;;;17.10;99.90;;;;;;5079510;28;19977;-39
2023/08/26 01:38:05;;;;;;;;;;;17.10;99.90;;;;;;5087223;28;20496;-39
2023/08/26 01:40:31;;;;;;;;;;;17.00;99.90;;;;;;5088581;28;19920;-39
2023/08/26 01:42:59;;;;;;;;;;;17.00;99.90;;;;;;5102507;28;19941;-39
2023/08/26 01:45:26;;;;;;;;;;;17.00;99.90;;;;;;5060111;28;19926;-39
2023/08/26 01:47:53;;;;;;;;;;;17.00;99.90;;;;;;5074347;28;19954;-40
2023/08/26 01:50:19;;;;;;;;;;;17.00;99.90;;;;;;5080740;28;19989;-39
2023/08/26 01:52:46;;;;;;;;;;;16.90;99.90;;;;;;5083018;28;19932;-39
2023/08/26 01:55:13;;;;;;;;;;;16.90;99.90;;;;;;5072703;28;19974;-39
2023/08/26 01:57:39;;;;;;;;;;;16.90;99.90;;;;;;5074381;28;19974;-39
2023/08/26 02:00:08;;;;;;;;;;;16.90;99.90;;;;;;5078134;28;19920;-39
2023/08/26 02:02:35;;;;;;;;;;;16.90;99.90;;;;;;5073859;28;19921;-39
2023/08/26 02:05:02;;;;;;;;;;;16.90;99.90;;;;;;5085002;28;19920;-40
2023/08/26 02:07:28;;;;;;;;;;;16.90;99.90;;;;;;5072975;28;20002;-39
2023/08/26 02:09:55;;;;;;;;;;;16.80;99.90;;;;;;5068997;28;19954;-39
2023/08/26 02:12:22;;;;;;;;;;;16.80;99.90;;;;;;5064858;28;19960;-39
2023/08/26 02:14:48;;;;;;;;;;;16.80;99.90;;;;;;5056371;28;19931;-39
2023/08/26 02:17:16;;;;;;;;;;;16.80;99.90;;;;;;5074747;28;19959;-39
2023/08/26 02:19:43;;;;;;;;;;;16.70;99.90;;;;;;5091257;28;19920;-39
2023/08/26 02:22:10;;;;;;;;;;;16.70;99.90;;;;;;5095469;28;19953;-39
2023/08/26 02:24:36;;;;;;;;;;;16.70;99.90;;;;;;5087096;28;19927;-40
2023/08/26 02:27:03;;;;;;;;;;;16.60;99.90;;;;;;5084210;28;20259;-39
2023/08/26 02:29:30;;;;;;;;;;;16.60;99.90;;;;;;5055548;28;19957;-39
2023/08/26 02:31:57;;;;;;;;;;;16.60;99.90;;;;;;5078279;28;19924;-39
2023/08/26 02:34:26;;;;;;;;;;;16.60;99.90;;;;;;5102244;28;19919;-39
2023/08/26 02:36:53;;;;;;;;;;;16.60;99.90;;;;;;5062867;28;19921;-40
2023/08/26 02:39:19;;;;;;;;;;;16.60;99.90;;;;;;5073485;28;19963;-40
2023/08/26 02:41:52;;;;;;;;;;;16.50;99.90;;;;;;5074683;28;19925;-39
2023/08/26 02:44:19;;;;;;;;;;;16.50;99.90;;;;;;5074179;28;19970;-40
2023/08/26 02:46:45;;;;;;;;;;;16.50;99.90;;;;;;5054497;28;19940;-39
2023/08/26 02:49:12;;;;;;;;;;;16.50;99.90;;;;;;5092325;28;20083;-40
2023/08/26 02:51:40;;;;;;;;;;;16.50;99.90;;;;;;5091989;28;19959;-40
2023/08/26 02:54:07;;;;;;;;;;;16.50;99.90;;;;;;5056904;28;19945;-39
2023/08/26 02:56:36;;;;;;;;;;;16.40;99.90;;;;;;5066160;28;19947;-40
2023/08/26 02:59:03;;;;;;;;;;;16.40;99.90;;;;;;5082759;28;20280;-39
2023/08/26 03:01:30;;;;;;;;;;;16.40;99.90;;;;;;5091602;28;19931;-40
2023/08/26 03:03:56;;;;;;;;;;;16.30;99.90;;;;;;5078467;28;19941;-40
2023/08/26 03:06:23;;;;;;;;;;;16.30;99.90;;;;;;5075340;28;19920;-40
2023/08/26 03:08:57;;;;;;;;;;;16.30;99.90;;;;;;5088614;28;19932;-40
2023/08/26 03:11:24;;;;;;;;;;;16.20;99.90;;;;;;5078165;28;20291;-39
2023/08/26 03:13:51;;;;;;;;;;;16.20;99.90;;;;;;5066773;28;19919;-39
2023/08/26 03:16:18;;;;;;;;;;;16.20;99.90;;;;;;5059301;28;20020;-39
2023/08/26 03:18:44;;;;;;;;;;;16.10;99.90;;;;;;5080683;28;19935;-39
2023/08/26 03:21:11;;;;;;;;;;;16.10;99.90;;;;;;5059285;28;19963;-39
2023/08/26 03:23:37;;;;;;;;;;;16.10;99.90;;;;;;5085737;28;19928;-39
2023/08/26 03:26:05;;;;;;;;;;;16.00;99.90;;;;;;5067911;28;19921;-39
2023/08/26 03:28:32;;;;;;;;;;;16.00;99.90;;;;;;5091995;28;19927;-39
2023/08/26 03:31:02;;;;;;;;;;;15.90;99.90;;;;;;5076818;28;19920;-39
2023/08/26 03:33:28;;;;;;;;;;;15.90;99.90;;;;;;5090581;28;19920;-39
2023/08/26 03:35:55;;;;;;;;;;;15.90;99.90;;;;;;5094222;28;20268;-38
2023/08/26 03:38:22;;;;;;;;;;;15.90;99.90;;;;;;5089651;28;20367;-39
2023/08/26 03:40:48;;;;;;;;;;;15.80;99.90;;;;;;5094065;28;19920;-39
2023/08/26 03:43:16;;;;;;;;;;;15.80;99.90;;;;;;5073071;28;19920;-39
2023/08/26 03:45:43;;;;;;;;;;;15.70;99.90;;;;;;5075546;28;20009;-39
2023/08/26 03:48:10;;;;;;;;;;;15.70;99.90;;;;;;5072148;28;19927;-39
2023/08/26 03:50:37;;;;;;;;;;;15.60;99.90;;;;;;5065346;28;19970;-40
2023/08/26 03:53:04;;;;;;;;;;;15.60;99.90;;;;;;5095423;28;19920;-39
2023/08/26 03:55:36;;;;;;;;;;;15.60;99.90;;;;;;5074863;28;19924;-39
2023/08/26 03:58:02;;;;;;;;;;;15.50;99.90;;;;;;5092336;28;19969;-40
2023/08/26 04:00:31;;;;;;;;;;;15.50;99.90;;;;;;5078735;28;19973;-40
2023/08/26 04:02:58;;;;;;;;;;;15.50;99.90;;;;;;5104219;28;19924;-39
2023/08/26 04:05:25;;;;;;;;;;;15.50;99.90;;;;;;5084115;28;20325;-40
2023/08/26 04:07:51;;;;;;;;;;;15.50;99.90;;;;;;5102408;28;19920;-39
2023/08/26 04:10:18;;;;;;;;;;;15.40;99.90;;;;;;5091970;28;19950;-39
2023/08/26 04:12:45;;;;;;;;;;;15.40;99.90;;;;;;5093685;28;20331;-39
2023/08/26 04:15:11;;;;;;;;;;;15.40;99.90;;;;;;5062200;28;19974;-39
2023/08/26 04:17:41;;;;;;;;;;;15.40;99.90;;;;;;5091730;28;20375;-39
2023/08/26 04:20:08;;;;;;;;;;;15.40;99.90;;;;;;5078175;28;20351;-39
2023/08/26 04:22:34;;;;;;;;;;;15.40;99.90;;;;;;5086594;28;19957;-39
2023/08/26 04:25:01;;;;;;;;;;;15.30;99.90;;;;;;5056259;28;19920;-40
2023/08/26 04:27:28;;;;;;;;;;;15.30;99.90;;;;;;5074250;28;19931;-39
2023/08/26 04:29:55;;;;;;;;;;;15.30;99.90;;;;;;5077737;28;19927;-39
2023/08/26 04:32:21;;;;;;;;;;;15.20;99.90;;;;;;5068420;28;20360;-40
2023/08/26 04:34:49;;;;;;;;;;;15.20;99.90;;;;;;5095807;28;19938;-39
2023/08/26 04:37:16;;;;;;;;;;;15.20;99.90;;;;;;5074529;28;20311;-39
2023/08/26 04:39:43;;;;;;;;;;;15.20;99.90;;;;;;5089434;28;19919;-39
2023/08/26 04:42:09;;;;;;;;;;;15.20;99.90;;;;;;5092811;28;19927;-39
2023/08/26 04:44:36;;;;;;;;;;;15.20;99.90;;;;;;5072118;28;19924;-40
2023/08/26 04:47:03;;;;;;;;;;;15.20;99.90;;;;;;5093734;28;19927;-40
2023/08/26 04:49:31;;;;;;;;;;;15.20;99.90;;;;;;5093320;28;19920;-39
2023/08/26 04:51:59;;;;;;;;;;;15.20;99.90;;;;;;5072513;28;20364;-39
2023/08/26 04:54:25;;;;;;;;;;;15.20;99.90;;;;;;5091020;28;20407;-39
2023/08/26 04:56:52;;;;;;;;;;;15.20;99.90;;;;;;5083054;28;20279;-39
2023/08/26 04:59:19;;;;;;;;;;;15.20;99.90;;;;;;5062641;28;19928;-40
2023/08/26 05:01:46;;;;;;;;;;;15.20;99.90;;;;;;5092014;28;19924;-39
2023/08/26 05:04:13;;;;;;;;;;;15.20;99.90;;;;;;5088704;28;20426;-40
2023/08/26 05:06:39;;;;;;;;;;;15.30;99.90;;;;;;5088928;28;19927;-40
2023/08/26 05:09:07;;;;;;;;;;;15.30;99.90;;;;;;5090327;28;20410;-40
2023/08/26 05:11:34;;;;;;;;;;;15.30;99.90;;;;;;5082497;28;19920;-40
2023/08/26 05:14:01;;;;;;;;;;;15.30;99.90;;;;;;5097986;28;20371;-41
2023/08/26 05:16:28;;;;;;;;;;;15.40;99.90;;;;;;5090007;28;19923;-40
2023/08/26 05:18:55;;;;;;;;;;;15.40;99.90;;;;;;5101598;28;19964;-40
2023/08/26 05:21:22;;;;;;;;;;;15.40;99.90;;;;;;5111926;28;19946;-40
2023/08/26 05:23:48;;;;;;;;;;;15.40;99.90;;;;;;5077567;28;19931;-39
2023/08/26 05:26:16;;;;;;;;;;;15.40;99.90;;;;;;5080915;28;19926;-39
2023/08/26 05:28:43;;;;;;;;;;;15.50;99.90;;;;;;5097266;28;19927;-40
2023/08/26 05:31:10;;;;;;;;;;;15.50;99.90;;;;;;5093185;28;19924;-40
2023/08/26 05:33:36;;;;;;;;;;;15.50;99.90;;;;;;5075019;28;19923;-40
2023/08/26 05:36:03;;;;;;;;;;;15.50;99.90;;;;;;5081900;28;19956;-39
2023/08/26 05:38:30;;;;;;;;;;;15.50;99.90;;;;;;5066960;28;19921;-40
2023/08/26 05:40:57;;;;;;;;;;;15.60;99.90;;;;;;5066724;28;19931;-39
2023/08/26 05:43:29;;;;;;;;;;;15.60;99.90;;;;;;5101089;28;19964;-39
2023/08/26 05:45:56;;;;;;;;;;;15.60;99.90;;;;;;5105334;28;20006;-40
2023/08/26 05:48:23;;;;;;;;;;;15.60;99.90;;;;;;5092955;28;19924;-40
2023/08/26 05:50:49;;;;;;;;;;;15.60;99.90;;;;;;5097581;28;20013;-39
2023/08/26 05:53:16;;;;;;;;;;;15.70;99.90;;;;;;5092284;28;20311;-39
2023/08/26 05:55:43;;;;;;;;;;;15.60;99.90;;;;;;5072613;28;20344;-40
2023/08/26 05:58:10;;;;;;;;;;;15.70;99.90;;;;;;5079196;28;19920;-39
2023/08/26 06:00:39;;;;;;;;;;;15.70;99.90;;;;;;5096129;28;19920;-39
2023/08/26 06:03:06;;;;;;;;;;;15.70;99.90;;;;;;5092160;28;20208;-39
2023/08/26 06:05:32;;;;;;;;;;;15.70;99.90;;;;;;5082107;28;19919;-39
2023/08/26 06:07:59;;;;;;;;;;;15.70;99.90;;;;;;5112273;28;19973;-40
2023/08/26 06:10:26;;;;;;;;;;;15.70;99.90;;;;;;5101399;28;20131;-40
2023/08/26 06:12:52;;;;;;;;;;;15.80;99.90;;;;;;5084105;28;19920;-39
2023/08/26 06:15:19;;;;;;;;;;;15.80;99.90;;;;;;5084404;28;19973;-39
2023/08/26 06:17:47;;;;;;;;;;;15.80;99.90;;;;;;5058743;28;19927;-39
2023/08/26 06:20:14;;;;;;;;;;;15.80;99.90;;;;;;5072635;28;19920;-39
2023/08/26 06:22:41;;;;;;;;;;;15.90;99.90;;;;;;5093057;28;19957;-39
2023/08/26 06:25:08;;;;;;;;;;;15.90;99.90;;;;;;5090615;28;20294;-39
2023/08/26 06:27:35;;;;;;;;;;;15.90;99.90;;;;;;5092566;28;19934;-40
2023/08/26 06:30:03;;;;;;;;;;;15.90;99.90;;;;;;5092933;28;19950;-39
2023/08/26 06:32:29;;;;;;;;;;;16.00;99.90;;;;;;5088075;28;20325;-39
2023/08/26 06:34:57;;;;;;;;;;;16.00;99.90;;;;;;5085478;28;19931;-39
2023/08/26 06:37:24;;;;;;;;;;;16.00;99.90;;;;;;5076854;28;19947;-38
2023/08/26 06:39:51;;;;;;;;;;;16.00;99.90;;;;;;5083029;28;20363;-38
2023/08/26 06:42:17;;;;;;;;;;;16.10;99.90;;;;;;5068112;28;19931;-37
2023/08/26 06:44:44;;;;;;;;;;;16.10;99.90;;;;;;5081982;28;19958;-38
2023/08/26 06:47:11;;;;;;;;;;;16.10;99.90;;;;;;5082903;28;19927;-38
2023/08/26 06:49:37;;;;;;;;;;;16.10;99.90;;;;;;5090788;28;19978;-38
2023/08/26 06:52:06;;;;;;;;;;;16.10;99.90;;;;;;5075660;28;20361;-39
2023/08/26 06:54:33;;;;;;;;;;;16.10;99.90;;;;;;5060538;28;19921;-39
2023/08/26 06:57:01;;;;;;;;;;;16.20;99.90;;;;;;5067419;28;19920;-38
2023/08/26 06:59:28;;;;;;;;;;;16.20;99.90;;;;;;5066113;28;19920;-40
2023/08/26 07:01:54;;;;;;;;;;;16.30;99.90;;;;;;5062718;28;19931;-40
2023/08/26 07:04:21;;;;;;;;;;;16.30;99.90;;;;;;5061393;28;20018;-40
2023/08/26 07:06:50;;;;;;;;;;;16.30;99.90;;;;;;5066288;28;19930;-40
2023/08/26 07:09:18;;;;;;;;;;;16.30;99.90;;;;;;5062105;28;19946;-40
2023/08/26 07:11:44;;;;;;;;;;;16.30;99.90;;;;;;5081032;28;19920;-40
2023/08/26 07:14:11;;;;;;;;;;;16.30;99.90;;;;;;5080303;28;19943;-40
2023/08/26 07:16:38;;;;;;;;;;;16.30;99.90;;;;;;5086118;28;19924;-40
2023/08/26 07:19:06;;;;;;;;;;;16.30;99.90;;;;;;5076434;28;20376;-39
2023/08/26 07:21:32;;;;;;;;;;;16.30;99.90;;;;;;5076888;28;19928;-39
2023/08/26 07:23:59;;;;;;;;;;;16.30;99.90;;;;;;5099410;28;20301;-40
2023/08/26 07:26:27;;;;;;;;;;;16.40;99.90;;;;;;5098177;28;19946;-40
2023/08/26 07:28:54;;;;;;;;;;;16.40;99.90;;;;;;5077304;28;19954;-40
2023/08/26 07:31:20;;;;;;;;;;;16.50;99.90;;;;;;5100299;28;19977;-40
2023/08/26 07:33:47;;;;;;;;;;;16.50;99.90;;;;;;5093170;28;20387;-40
2023/08/26 07:36:14;;;;;;;;;;;16.60;99.90;;;;;;5092910;28;20158;-40
2023/08/26 07:38:41;;;;;;;;;;;16.70;99.90;;;;;;5094755;28;19924;-40
2023/08/26 07:41:07;;;;;;;;;;;16.70;99.90;;;;;;5093857;28;19997;-39
2023/08/26 07:43:37;;;;;;;;;;;16.80;99.90;;;;;;5094069;28;20275;-40
2023/08/26 07:46:04;;;;;;;;;;;16.90;99.90;;;;;;5094708;28;19920;-40
2023/08/26 07:48:31;;;;;;;;;;;16.90;99.90;;;;;;5074256;28;19920;-40
2023/08/26 07:50:57;;;;;;;;;;;16.90;99.90;;;;;;5092775;28;19920;-40
2023/08/26 07:53:24;;;;;;;;;;;16.90;99.90;;;;;;5093450;28;19928;-40
2023/08/26 07:55:51;;;;;;;;;;;17.00;99.90;;;;;;5093327;28;19920;-40
2023/08/26 07:58:17;;;;;;;;;;;17.10;99.90;;;;;;5086488;28;19982;-40
2023/08/26 08:00:45;;;;;;;;;;;17.20;99.90;;;;;;5081894;28;20492;-40
2023/08/26 08:03:12;;;;;;;;;;;17.30;99.90;;;;;;5078460;28;19921;-40
2023/08/26 08:05:39;;;;;;;;;;;17.60;99.90;;;;;;5081479;28;19924;-40
2023/08/26 08:08:06;;;;;;;;;;;17.70;99.90;;;;;;5095442;28;19921;-40
2023/08/26 08:10:32;;;;;;;;;;;17.70;99.90;;;;;;5076872;28;19935;-40
2023/08/26 08:12:59;;;;;;;;;;;17.80;99.90;;;;;;5094083;28;19927;-40
2023/08/26 08:15:26;;;;;;;;;;;17.90;99.90;;;;;;5080689;28;20256;-40
2023/08/26 08:17:54;;;;;;;;;;;18.00;99.90;;;;;;5063817;28;20021;-40
2023/08/26 08:20:21;;;;;;;;;;;18.10;99.90;;;;;;5064664;28;19924;-40
2023/08/26 08:22:48;;;;;;;;;;;18.20;99.90;;;;;;5080499;28;19958;-40
2023/08/26 08:25:15;;;;;;;;;;;18.30;99.90;;;;;;5083345;28;19935;-40
2023/08/26 08:27:42;;;;;;;;;;;18.30;99.90;;;;;;5068979;28;19973;-40
2023/08/26 08:30:09;;;;;;;;;;;18.40;99.90;;;;;;5082238;28;20306;-40
2023/08/26 08:32:35;;;;;;;;;;;18.50;99.90;;;;;;5083033;28;20008;-40
2023/08/26 08:35:03;;;;;;;;;;;18.50;99.90;;;;;;5081064;28;20371;-40
2023/08/26 08:37:30;;;;;;;;;;;18.60;99.90;;;;;;5083957;28;20333;-40
2023/08/26 08:39:57;;;;;;;;;;;18.70;99.90;;;;;;5085158;28;19920;-40
2023/08/26 08:42:24;;;;;;;;;;;18.70;99.90;;;;;;5091395;28;19951;-40
2023/08/26 08:44:50;;;;;;;;;;;18.70;99.90;;;;;;5088556;28;19971;-40
2023/08/26 08:47:17;;;;;;;;;;;18.70;99.90;;;;;;5080087;28;19990;-40
2023/08/26 08:49:44;;;;;;;;;;;18.60;99.90;;;;;;5093381;28;19927;-40
2023/08/26 08:52:12;;;;;;;;;;;18.70;99.90;;;;;;5085142;28;20257;-40
2023/08/26 08:54:39;;;;;;;;;;;18.80;99.90;;;;;;5084702;28;20532;-40
2023/08/26 08:57:06;;;;;;;;;;;18.90;99.90;;;;;;5090352;28;19965;-40
2023/08/26 08:59:33;;;;;;;;;;;19.10;99.90;;;;;;5069844;28;19954;-40
2023/08/26 09:02:00;;;;;;;;;;;19.10;99.90;;;;;;5070062;28;19958;-40
2023/08/26 09:04:28;;;;;;;;;;;19.20;99.90;;;;;;5081333;28;19920;-40
2023/08/26 09:06:54;;;;;;;;;;;19.40;99.90;;;;;;5087223;28;20007;-40
2023/08/26 09:09:23;;;;;;;;;;;19.50;99.90;;;;;;5070663;28;19920;-40
2023/08/26 09:11:50;;;;;;;;;;;19.70;99.90;;;;;;5081901;28;19926;-40
2023/08/26 09:14:16;;;;;;;;;;;19.80;99.90;;;;;;5085137;28;19920;-40
2023/08/26 09:16:43;;;;;;;;;;;19.90;99.90;;;;;;5088931;28;19932;-40
2023/08/26 09:19:10;;;;;;;;;;;20.00;99.90;;;;;;5083909;28;19923;-40
2023/08/26 09:21:40;;;;;;;;;;;20.00;99.90;;;;;;5087524;28;20443;-40
2023/08/26 09:24:09;;;;;;;;;;;20.00;99.90;;;;;;5063792;28;19958;-40
2023/08/26 09:26:37;;;;;;;;;;;19.90;99.90;;;;;;5063398;28;19974;-40
2023/08/26 09:29:05;;;;;;;;;;;19.90;99.90;;;;;;5059839;28;19927;-40
2023/08/26 09:31:32;;;;;;;;;;;19.80;99.90;;;;;;5082645;28;19951;-41
2023/08/26 09:34:00;;;;;;;;;;;19.70;99.90;;;;;;5068246;28;20011;-40
2023/08/26 09:36:31;;;;;;;;;;;19.60;99.90;;;;;;5071526;28;19962;-41
2023/08/26 09:38:58;;;;;;;;;;;19.50;99.90;;;;;;5078509;28;19927;-40
2023/08/26 09:41:25;;;;;;;;;;;19.50;99.90;;;;;;5074928;28;19943;-40
2023/08/26 09:43:53;;;;;;;;;;;19.50;99.90;;;;;;5093934;28;20629;-41
2023/08/26 09:46:20;;;;;;;;;;;19.50;99.90;;;;;;5089557;28;20029;-40
2023/08/26 09:48:47;;;;;;;;;;;19.70;99.90;;;;;;5088632;28;20426;-41
2023/08/26 09:51:23;;;;;;;;;;;19.80;99.90;;;;;;5089935;28;19928;-40
2023/08/26 09:53:50;;;;;;;;;;;19.80;99.90;;;;;;5099034;28;19923;-41
2023/08/26 09:56:16;;;;;;;;;;;19.90;99.90;;;;;;5076172;28;19927;-40
2023/08/26 09:58:43;;;;;;;;;;;19.90;99.90;;;;;;5089346;28;19920;-40
2023/08/26 10:01:11;;;;;;;;;;;20.00;99.90;;;;;;5096690;28;20132;-41
2023/08/26 10:03:38;;;;;;;;;;;20.10;99.90;;;;;;5083350;28;19928;-41
2023/08/26 10:06:04;;;;;;;;;;;20.10;99.90;;;;;;5086224;28;19927;-40
2023/08/26 10:08:32;;;;;;;;;;;20.10;99.90;;;;;;5074756;28;20402;-41
2023/08/26 10:10:59;;;;;;;;;;;20.10;99.90;;;;;;5074000;28;19961;-41
2023/08/26 10:13:26;;;;;;;;;;;20.30;99.90;;;;;;5062897;28;19974;-41
2023/08/26 10:15:53;;;;;;;;;;;20.50;99.90;;;;;;5086474;28;19963;-41
2023/08/26 10:18:25;;;;;;;;;;;20.80;99.90;;;;;;5069544;28;20011;-41
2023/08/26 10:20:52;;;;;;;;;;;20.90;99.90;;;;;;5088298;28;19920;-41
2023/08/26 10:23:18;;;;;;;;;;;20.90;99.90;;;;;;5088197;28;19920;-41
2023/08/26 10:25:45;;;;;;;;;;;20.90;99.90;;;;;;5082031;28;19980;-41
2023/08/26 10:28:12;;;;;;;;;;;20.90;99.90;;;;;;5070789;28;19965;-40
2023/08/26 10:30:38;;;;;;;;;;;21.10;99.90;;;;;;5087411;28;19966;-40
2023/08/26 10:33:07;;;;;;;;;;;21.20;99.90;;;;;;5089726;28;20478;-41
2023/08/26 10:35:35;;;;;;;;;;;21.40;99.90;;;;;;5089798;28;19920;-41
2023/08/26 10:38:08;;;;;;;;;;;21.60;99.90;;;;;;5079852;28;19921;-40
2023/08/26 10:40:35;;;;;;;;;;;21.60;99.90;;;;;;5085391;28;19968;-40
2023/08/26 10:43:05;;;;;;;;;;;21.70;99.90;;;;;;5109189;28;19923;-40
2023/08/26 10:48:31;;;;;;;;;;;21.80;99.90;;;;;;4493451;22;19932;-40
2023/08/26 10:51:00;;;;;;;;;;;22.00;99.90;;;;;;5065114;28;19932;-40
2023/08/26 10:53:26;;;;;;;;;;;22.00;99.90;;;;;;5070032;28;19929;-41
2023/08/26 10:55:55;;;;;;;;;;;21.90;99.90;;;;;;5070389;28;20372;-41
2023/08/26 10:58:22;;;;;;;;;;;21.80;99.90;;;;;;5069999;28;20008;-41
2023/08/26 11:00:49;;;;;;;;;;;21.90;99.90;;;;;;5069470;28;19928;-41
2023/08/26 11:03:16;;;;;;;;;;;22.00;99.90;;;;;;5067219;28;19925;-40
2023/08/26 11:05:42;;;;;;;;;;;22.10;99.90;;;;;;5064233;28;19985;-41
2023/08/26 11:08:11;;;;;;;;;;;22.30;99.90;;;;;;5069918;28;19924;-41
2023/08/26 11:10:39;;;;;;;;;;;22.40;99.90;;;;;;5070190;28;19931;-41
2023/08/26 11:13:05;;;;;;;;;;;22.50;99.90;;;;;;5071700;28;19924;-41
2023/08/26 11:15:33;;;;;;;;;;;22.40;99.90;;;;;;5070177;28;19978;-41
2023/08/26 11:17:59;;;;;;;;;;;22.40;99.90;;;;;;5066956;28;20027;-40
2023/08/26 11:20:27;;;;;;;;;;;22.40;99.90;;;;;;5069877;28;20007;-41
2023/08/26 11:22:54;;;;;;;;;;;22.30;99.90;;;;;;5069942;28;19924;-41
2023/08/26 11:25:22;;;;;;;;;;;22.10;99.90;;;;;;5054482;28;19925;-40
2023/08/26 11:27:49;;;;;;;;;;;22.10;99.90;;;;;;5067573;28;19974;-41
2023/08/26 11:30:16;;;;;;;;;;;22.00;99.90;;;;;;5064712;28;20019;-40
2023/08/26 11:32:42;;;;;;;;;;;22.00;99.90;;;;;;5068150;28;19932;-41
2023/08/26 11:35:10;;;;;;;;;;;22.00;99.90;;;;;;5071259;28;19924;-40
2023/08/26 11:37:36;;;;;;;;;;;22.00;99.90;;;;;;5075274;28;19924;-41
2023/08/26 11:40:05;;;;;;;;;;;22.00;99.90;;;;;;5069940;28;19929;-41
2023/08/26 11:42:33;;;;;;;;;;;22.00;99.90;;;;;;5072894;28;19928;-41
2023/08/26 11:44:59;;;;;;;;;;;22.10;99.90;;;;;;5072034;28;20354;-41
2023/08/26 11:47:26;;;;;;;;;;;22.40;99.90;;;;;;5073704;28;19931;-41
2023/08/26 11:49:54;;;;;;;;;;;22.50;99.90;;;;;;5075180;28;19932;-41
2023/08/26 11:52:22;;;;;;;;;;;22.70;99.90;;;;;;5073381;28;20281;-41
2023/08/26 11:54:51;;;;;;;;;;;22.90;99.90;;;;;;5074119;28;19928;-41
2023/08/26 11:57:17;;;;;;;;;;;23.00;99.60;;;;;;5073405;28;19974;-41
2023/08/26 11:59:48;;;;;;;;;;;23.10;99.90;;;;;;5072798;28;19924;-41
2023/08/26 12:02:20;;;;;;;;;;;23.10;98.60;;;;;;5071690;28;19932;-41
2023/08/26 12:04:47;;;;;;;;;;;23.20;99.30;;;;;;5069503;28;19931;-41
2023/08/26 12:07:14;;;;;;;;;;;23.30;99.30;;;;;;5071231;28;19971;-41
2023/08/26 12:09:40;;;;;;;;;;;23.30;99.50;;;;;;5071389;28;19978;-41
2023/08/26 12:12:07;;;;;;;;;;;23.30;99.70;;;;;;5074195;28;19924;-41
2023/08/26 12:14:34;;;;;;;;;;;23.30;99.90;;;;;;5074167;28;19924;-40
2023/08/26 12:17:04;;;;;;;;;;;23.20;99.90;;;;;;5074660;28;19924;-41
2023/08/26 12:19:31;;;;;;;;;;;23.30;99.90;;;;;;5072046;28;19936;-41
2023/08/26 12:21:58;;;;;;;;;;;23.50;99.80;;;;;;5070679;28;19932;-41
2023/08/26 12:24:25;;;;;;;;;;;23.50;99.90;;;;;;5071540;28;19924;-41
2023/08/26 12:26:52;;;;;;;;;;;23.60;99.90;;;;;;5072265;28;19933;-41
2023/08/26 12:29:18;;;;;;;;;;;23.70;98.40;;;;;;5068702;28;19925;-40
2023/08/26 12:31:46;;;;;;;;;;;23.60;98.30;;;;;;5071078;28;20292;-40
2023/08/26 12:34:14;;;;;;;;;;;23.50;98.00;;;;;;5070811;28;20300;-40
2023/08/26 12:36:41;;;;;;;;;;;23.40;99.80;;;;;;5063981;28;19925;-41
2023/08/26 12:39:07;;;;;;;;;;;23.40;98.90;;;;;;5065191;28;19928;-41
2023/08/26 12:41:34;;;;;;;;;;;23.30;99.90;;;;;;5069902;28;19974;-41
2023/08/26 12:44:01;;;;;;;;;;;23.30;99.80;;;;;;5070999;28;20384;-41
2023/08/26 12:46:27;;;;;;;;;;;23.30;99.90;;;;;;5068719;28;20312;-40
2023/08/26 12:48:54;;;;;;;;;;;23.40;99.90;;;;;;5065821;28;20406;-40
2023/08/26 12:51:22;;;;;;;;;;;23.50;99.90;;;;;;5070211;28;19928;-40
2023/08/26 12:53:49;;;;;;;;;;;23.60;99.90;;;;;;5072634;28;20365;-41
2023/08/26 12:56:16;;;;;;;;;;;23.70;99.80;;;;;;5072947;28;20307;-41
2023/08/26 12:58:42;;;;;;;;;;;23.70;97.80;;;;;;5068878;28;20269;-40
2023/08/26 13:01:09;;;;;;;;;;;23.60;98.70;;;;;;5071045;28;19928;-41
2023/08/26 13:03:36;;;;;;;;;;;23.50;99.90;;;;;;5072018;28;19970;-40
2023/08/26 13:06:02;;;;;;;;;;;23.40;99.50;;;;;;5072885;28;19978;-41
2023/08/26 13:08:31;;;;;;;;;;;23.30;99.00;;;;;;5071695;28;20379;-40
2023/08/26 13:10:57;;;;;;;;;;;23.20;99.90;;;;;;5070356;28;19928;-41
2023/08/26 13:13:24;;;;;;;;;;;23.30;99.40;;;;;;5066865;28;20011;-41
2023/08/26 13:15:51;;;;;;;;;;;23.30;99.90;;;;;;5070081;28;20438;-41
2023/08/26 13:18:17;;;;;;;;;;;23.30;98.20;;;;;;5068857;28;20002;-41
2023/08/26 13:20:44;;;;;;;;;;;23.20;97.90;;;;;;5072848;28;19928;-40
2023/08/26 13:23:11;;;;;;;;;;;23.10;99.50;;;;;;5072658;28;19932;-41
2023/08/26 13:25:39;;;;;;;;;;;23.00;99.90;;;;;;5071757;28;19933;-40
2023/08/26 13:28:06;;;;;;;;;;;23.00;99.60;;;;;;5071500;28;19924;-41
2023/08/26 13:30:33;;;;;;;;;;;23.00;99.90;;;;;;5072298;28;20007;-41
2023/08/26 13:32:59;;;;;;;;;;;22.90;99.90;;;;;;5071950;28;20304;-40
2023/08/26 13:35:26;;;;;;;;;;;22.90;99.90;;;;;;5069866;28;19924;-41
2023/08/26 13:37:52;;;;;;;;;;;22.80;99.90;;;;;;5069569;28;19924;-41
2023/08/26 13:40:19;;;;;;;;;;;22.80;99.90;;;;;;5070096;28;20354;-41
2023/08/26 13:42:50;;;;;;;;;;;22.80;99.90;;;;;;5072378;28;19929;-41
2023/08/26 13:45:17;;;;;;;;;;;22.70;99.90;;;;;;5072199;28;19978;-41
2023/08/26 13:47:43;;;;;;;;;;;22.70;99.90;;;;;;5071541;28;19924;-41
2023/08/26 13:50:10;;;;;;;;;;;22.60;99.90;;;;;;5060596;28;19932;-40
2023/08/26 13:52:37;;;;;;;;;;;22.60;99.90;;;;;;5071158;28;19925;-41
2023/08/26 13:55:05;;;;;;;;;;;22.60;99.90;;;;;;5071981;28;19974;-41
2023/08/26 13:57:33;;;;;;;;;;;22.60;99.90;;;;;;5071041;28;20437;-41
2023/08/26 14:00:01;;;;;;;;;;;22.70;99.90;;;;;;5072084;28;19928;-40
2023/08/26 14:02:28;;;;;;;;;;;22.80;99.90;;;;;;5071853;28;20026;-41
2023/08/26 14:04:54;;;;;;;;;;;22.80;99.90;;;;;;5069928;28;19932;-41
2023/08/26 14:07:21;;;;;;;;;;;22.70;99.90;;;;;;5065894;28;19951;-40
2023/08/26 14:09:48;;;;;;;;;;;22.60;99.90;;;;;;5064757;28;19975;-41
2023/08/26 14:12:14;;;;;;;;;;;22.50;99.90;;;;;;5069098;28;19928;-41
2023/08/26 14:14:41;;;;;;;;;;;22.40;99.90;;;;;;5069715;28;19929;-41
2023/08/26 14:17:09;;;;;;;;;;;22.30;99.90;;;;;;5067638;28;19925;-40